Accueil
METAR-TAF:

METAR-TAF

Aéroports :

La Havane, Cuba

Aéroport international José-Martí

latitude: 22-59N, longitude: 082-24W, altitude: 59 m

Observation

Le bulletin a été fait il y a 24 minutes, à 15:55 UTC
Vent 9 kt de sud-est, variant entre est et sud/sud-est
Température 27°C
Humidité 58%
Pression 1022 hPa
Visibilité: 9000 m
Nuages épars à une hauteur de 3000 ft

METAR: MUHA 241555Z 13009KT 090V160 9000 SCT030 27/18 Q1022

Heure: 11:19 (16:19 UTC)

Prévision

Le bulletin a été fait il y a 5 heures et 19 minutes, à 11:00 UTC
Prévision valable du 24 à 12 UTC au 25 à 12 UTC
Vent 6 kt de est
Visibilité: 9000 m
Quelques nuages à une hauteur de 2500 ft
Evoluant progressivement
du 24 à 14 UTC au 24 à 17 UTC
Vent 12 kt de sud-est
Evoluant progressivement
du 25 à 02 UTC au 25 à 04 UTC
Vent 5 kt de sud-est

TAF: MUHA 241100Z 2412/2512 09006KT 9000 FEW025 BECMG 2414/2417 13012KT BECMG 2502/2504 13005KT

Observations et prévisions météorologiques de plus de 4000 aéroports (messages METAR et TAF).

Les stations disponibles sont représentées par des disques jaunes et rouges sur la carte.

Passer la souris dessus pour voir le nom de la station.

Cliquer dessus pour voir les observations et prévisions météorologiques.

Pour changer de carte: cliquez sur les boutons verts avec une croix noire pour zoomer, sur le bouton vert avec un tiret pour effectuer un zoom arrière, ou sur les flèches vertes pour les cartes adjacentes.


METAR-TAF: